Time;durP1;ratioP1;P1;durP2;ratioP2;P2;SDS_P1;SDS_P2;PMS_P1;PMS_P2;Temp;Humidity;BMP_temperature;BMP_pressure;BME280_temperature;BME280_humidity;BME280_pressure;Samples;Min_cycle;Max_cycle;Signal;HPM_P1;HPM_P2
2021/12/06 00:00:11;;;;;;;;;;;;;;;-1.08;77.78;96694.88;6399364;27;19922;-62
2021/12/06 00:03:14;;;;;;;;;;;;;;;-1.22;78.11;96689.16;6398265;27;20025;-62
2021/12/06 00:06:16;;;;;;;;;;;;;;;-1.26;77.98;96692.69;6399027;27;19923;-62
2021/12/06 00:09:19;;;;;;;;;;;;;;;-1.37;78.24;96691.19;6398356;27;19952;-62
2021/12/06 00:12:20;;;;;;;;;;;;;;;-1.37;77.98;96686.03;6397977;27;20021;-61
2021/12/06 00:15:21;;;;;;;;;;;;;;;-1.30;77.89;96691.06;6398034;27;19938;-62
2021/12/06 00:18:22;;;;;;;;;;;;;;;-1.35;78.25;96688.59;6398273;27;19930;-62
2021/12/06 00:21:24;;;;;;;;;;;;;;;-1.40;78.42;96685.25;6397530;27;19923;-62
2021/12/06 00:24:25;;;;;;;;;;;;;;;-1.39;78.42;96686.94;6398698;27;19922;-63
2021/12/06 00:27:28;;;;;;;;;;;;;;;-1.34;78.40;96686.84;6398588;27;19927;-63
2021/12/06 00:30:29;;;;;;;;;;;;;;;-1.33;77.60;96681.66;6398635;27;20067;-63
2021/12/06 00:33:30;;;;;;;;;;;;;;;-1.32;77.68;96682.50;6398448;27;19923;-63
2021/12/06 00:36:33;;;;;;;;;;;;;;;-1.32;78.20;96677.34;6397617;27;19923;-62
2021/12/06 00:39:34;;;;;;;;;;;;;;;-1.30;78.69;96667.81;6397106;27;19923;-63
2021/12/06 00:42:35;;;;;;;;;;;;;;;-1.26;78.20;96672.06;6397647;27;20075;-63
2021/12/06 00:45:37;;;;;;;;;;;;;;;-1.26;77.67;96672.91;6397087;27;19923;-62
2021/12/06 00:48:38;;;;;;;;;;;;;;;-1.22;78.21;96665.94;6397252;27;20412;-62
2021/12/06 00:51:44;;;;;;;;;;;;;;;-1.18;77.77;96663.25;6398313;27;19923;-61
2021/12/06 00:54:49;;;;;;;;;;;;;;;-1.13;77.87;96658.00;6398088;27;20391;-62
2021/12/06 00:57:52;;;;;;;;;;;;;;;-1.14;78.13;96661.44;6396956;27;19930;-62
2021/12/06 01:00:56;;;;;;;;;;;;;;;-1.11;78.38;96670.88;6397675;27;19945;-63
2021/12/06 01:03:58;;;;;;;;;;;;;;;-1.14;77.81;96667.47;6396623;27;19930;-63
2021/12/06 01:07:03;;;;;;;;;;;;;;;-1.15;77.69;96659.75;6397657;27;19923;-62
2021/12/06 01:10:06;;;;;;;;;;;;;;;-1.16;78.05;96663.22;6397699;27;19922;-61
2021/12/06 01:13:09;;;;;;;;;;;;;;;-1.18;78.25;96654.66;6396631;27;20283;-62
2021/12/06 01:16:13;;;;;;;;;;;;;;;-1.19;77.99;96655.53;6397742;27;20014;-62
2021/12/06 01:19:16;;;;;;;;;;;;;;;-1.17;78.15;96664.09;6397379;27;20342;-63
2021/12/06 01:29:03;;;;;;;;;;;;;;;-1.10;78.01;96670.84;6374353;27;19929;-62
2021/12/06 01:41:58;;;;;;;;;;;;;;;-1.03;77.97;96672.38;6397145;27;19923;-63
2021/12/06 01:45:02;;;;;;;;;;;;;;;-1.06;78.00;96680.22;6396331;27;19923;-63
2021/12/06 01:48:03;;;;;;;;;;;;;;;-1.06;77.66;96687.94;6398838;27;20400;-62
2021/12/06 01:51:04;;;;;;;;;;;;;;;-1.09;78.02;96687.19;6401395;27;19931;-62
2021/12/06 01:54:08;;;;;;;;;;;;;;;-1.14;77.58;96692.44;6402186;27;20003;-63
2021/12/06 01:57:10;;;;;;;;;;;;;;;-1.12;78.11;96675.19;6402260;27;19929;-62
2021/12/06 02:00:13;;;;;;;;;;;;;;;-1.16;77.85;96683.88;6401996;27;20025;-62
2021/12/06 02:03:15;;;;;;;;;;;;;;;-1.17;77.43;96688.19;6401449;27;19923;-62
2021/12/06 02:06:16;;;;;;;;;;;;;;;-1.20;77.63;96683.09;6401301;27;19923;-63
2021/12/06 02:09:18;;;;;;;;;;;;;;;-1.20;77.05;96687.41;6400845;27;19958;-63
2021/12/06 02:12:20;;;;;;;;;;;;;;;-1.21;77.11;96685.72;6400838;27;19923;-62
2021/12/06 02:15:40;;;;;;;;;;;;;;;-1.30;76.77;96686.75;6400708;27;19919;-62
2021/12/06 02:18:49;;;;;;;;;;;;;;;-1.29;76.48;96691.03;6383715;27;19923;-62
2021/12/06 02:21:50;;;;;;;;;;;;;;;-1.36;76.74;96692.91;6401196;27;19926;-62
2021/12/06 02:24:53;;;;;;;;;;;;;;;-1.36;76.84;96703.22;6401736;27;20460;-61
2021/12/06 02:27:56;;;;;;;;;;;;;;;-1.31;77.29;96700.53;6401388;27;19968;-63
2021/12/06 02:30:58;;;;;;;;;;;;;;;-1.36;76.63;96702.34;6401342;27;19931;-62
2021/12/06 02:34:01;;;;;;;;;;;;;;;-1.25;76.52;96694.41;6401241;27;20013;-63
2021/12/06 02:37:03;;;;;;;;;;;;;;;-1.37;76.68;96698.94;6400510;27;20299;-62
2021/12/06 02:40:09;;;;;;;;;;;;;;;-1.31;77.01;96704.84;6400040;27;19930;-63
2021/12/06 02:43:11;;;;;;;;;;;;;;;-1.42;77.05;96708.50;6399662;27;19922;-62
2021/12/06 02:46:18;;;;;;;;;;;;;;;-1.45;77.37;96700.81;6400466;27;20311;-62
2021/12/06 02:49:22;;;;;;;;;;;;;;;-1.40;76.72;96706.75;6400851;27;19923;-62
2021/12/06 02:52:28;;;;;;;;;;;;;;;-1.44;77.61;96710.28;6400556;27;20388;-63
2021/12/06 02:55:35;;;;;;;;;;;;;;;-1.44;77.14;96714.59;6400839;27;19923;-63
2021/12/06 03:01:38;;;;;;;;;;;;;;;-1.39;77.33;96717.91;6398453;27;19923;-64
2021/12/06 03:04:39;;;;;;;;;;;;;;;-1.38;77.68;96715.31;6399343;27;19930;-62
2021/12/06 03:07:41;;;;;;;;;;;;;;;-1.39;77.02;96718.78;6399119;27;19923;-63
2021/12/06 03:10:42;;;;;;;;;;;;;;;-1.42;77.16;96716.22;6399566;27;19919;-63
2021/12/06 03:13:43;;;;;;;;;;;;;;;-1.37;77.77;96717.00;6399470;27;20393;-62
2021/12/06 03:16:47;;;;;;;;;;;;;;;-1.32;77.38;96718.66;6400228;27;19923;-62
2021/12/06 03:19:54;;;;;;;;;;;;;;;-1.32;77.73;96718.66;6399676;27;19926;-62
2021/12/06 03:22:55;;;;;;;;;;;;;;;-1.39;77.24;96708.47;6398547;27;19929;-62
2021/12/06 03:25:56;;;;;;;;;;;;;;;-1.33;77.50;96706.59;6399123;27;19923;-63
2021/12/06 03:28:57;;;;;;;;;;;;;;;-1.40;77.50;96722.22;6399650;27;19923;-62
2021/12/06 03:32:00;;;;;;;;;;;;;;;-1.41;77.35;96725.69;6398671;27;19937;-62
2021/12/06 03:35:02;;;;;;;;;;;;;;;-1.38;77.50;96735.09;6398931;27;20377;-62
2021/12/06 03:38:04;;;;;;;;;;;;;;;-1.43;77.71;96740.34;6398535;27;19942;-62
2021/12/06 03:41:09;;;;;;;;;;;;;;;-1.40;77.94;96740.28;6399488;27;19922;-63
2021/12/06 03:44:14;;;;;;;;;;;;;;;-1.43;77.79;96745.50;6399267;27;19923;-63
2021/12/06 03:47:23;;;;;;;;;;;;;;;-1.44;78.34;96743.81;6399333;27;19926;-63
2021/12/06 03:50:24;;;;;;;;;;;;;;;-1.46;77.99;96748.16;6398526;27;19923;-63
2021/12/06 03:53:26;;;;;;;;;;;;;;;-1.49;77.71;96743.06;6398418;27;19930;-63
2021/12/06 03:56:26;;;;;;;;;;;;;;;-1.47;77.47;96746.47;6398100;27;19922;-63
2021/12/06 03:59:28;;;;;;;;;;;;;;;-1.51;77.55;96749.97;6398685;27;19934;-62
2021/12/06 04:02:30;;;;;;;;;;;;;;;-1.59;78.16;96757.84;6397286;27;19922;-62
2021/12/06 04:05:37;;;;;;;;;;;;;;;-1.59;78.14;96751.84;6399011;27;20392;-62
2021/12/06 04:08:39;;;;;;;;;;;;;;;-1.58;78.26;96759.56;6398818;27;19929;-63
2021/12/06 04:11:40;;;;;;;;;;;;;;;-1.60;77.66;96757.88;6396552;27;20392;-62
2021/12/06 04:14:44;;;;;;;;;;;;;;;-1.58;77.84;96763.88;6398698;27;19922;-61
2021/12/06 04:17:45;;;;;;;;;;;;;;;-1.56;77.74;96772.41;6397315;27;19930;-62
2021/12/06 04:20:48;;;;;;;;;;;;;;;-1.44;77.58;96764.47;6398566;27;20304;-62
2021/12/06 04:23:52;;;;;;;;;;;;;;;-1.53;77.52;96777.53;6398463;27;19923;-63
2021/12/06 04:26:58;;;;;;;;;;;;;;;-1.51;77.65;96765.44;6398127;27;20004;-62
2021/12/06 04:29:59;;;;;;;;;;;;;;;-1.50;77.39;96769.75;6398438;27;19929;-62
2021/12/06 04:33:00;;;;;;;;;;;;;;;-1.51;77.42;96772.34;6397551;27;19930;-62
2021/12/06 04:36:02;;;;;;;;;;;;;;;-1.47;77.57;96764.53;6397897;27;19946;-62
2021/12/06 04:39:04;;;;;;;;;;;;;;;-1.40;77.40;96767.84;6379132;27;19925;-62
2021/12/06 04:42:06;;;;;;;;;;;;;;;-1.40;77.55;96771.25;6397004;27;20410;-62
2021/12/06 04:45:07;;;;;;;;;;;;;;;-1.40;76.97;96758.34;6397768;27;20349;-64
2021/12/06 04:48:09;;;;;;;;;;;;;;;-1.42;77.05;96765.25;6396681;27;19929;-62
2021/12/06 04:51:11;;;;;;;;;;;;;;;-1.38;76.81;96766.94;6397091;27;19927;-63
2021/12/06 04:54:18;;;;;;;;;;;;;;;-1.31;77.16;96766.81;6398122;27;19923;-63
2021/12/06 04:57:28;;;;;;;;;;;;;;;-1.27;77.20;96763.28;6396846;27;19923;-63
2021/12/06 05:00:48;;;;;;;;;;;;;;;-1.25;76.67;96766.66;6379859;27;20063;-61
2021/12/06 05:03:58;;;;;;;;;;;;;;;-1.20;76.39;96770.03;6397767;27;19922;-61
2021/12/06 05:07:04;;;;;;;;;;;;;;;-1.15;76.30;96769.03;6397783;27;19923;-62
2021/12/06 05:10:09;;;;;;;;;;;;;;;-1.11;76.49;96769.81;6397703;27;19923;-62
2021/12/06 05:13:16;;;;;;;;;;;;;;;-1.06;76.41;96762.84;6397065;27;19923;-63
2021/12/06 05:16:22;;;;;;;;;;;;;;;-1.03;75.91;96765.34;6397640;27;19975;-62
2021/12/06 05:19:23;;;;;;;;;;;;;;;-1.02;76.35;96774.81;6397309;27;19923;-62
2021/12/06 05:22:27;;;;;;;;;;;;;;;-1.01;75.95;96779.09;6397195;27;19927;-63
2021/12/06 05:25:31;;;;;;;;;;;;;;;-1.04;76.21;96781.75;6396608;27;19930;-63
2021/12/06 05:28:39;;;;;;;;;;;;;;;-1.05;76.05;96790.34;6397401;27;19991;-63
2021/12/06 05:31:41;;;;;;;;;;;;;;;-1.07;76.13;96784.38;6397419;27;19930;-62
2021/12/06 05:34:46;;;;;;;;;;;;;;;-1.15;75.90;96788.84;6397238;27;20303;-63
2021/12/06 05:37:49;;;;;;;;;;;;;;;-1.26;76.60;96783.91;6396326;27;19930;-62
2021/12/06 05:40:51;;;;;;;;;;;;;;;-1.38;76.39;96803.06;6396385;27;19927;-62
2021/12/06 05:43:52;;;;;;;;;;;;;;;-1.49;77.02;96805.00;6396976;27;20384;-63
2021/12/06 05:46:53;;;;;;;;;;;;;;;-1.57;76.48;96801.69;6396992;27;20017;-63
2021/12/06 05:49:54;;;;;;;;;;;;;;;-1.56;76.59;96808.53;6397145;27;19931;-62
2021/12/06 05:52:56;;;;;;;;;;;;;;;-1.48;76.25;96801.53;6396983;27;19930;-62
2021/12/06 05:55:57;;;;;;;;;;;;;;;-1.17;76.35;96806.09;6395823;27;19935;-62
2021/12/06 05:59:00;;;;;;;;;;;;;;;-0.78;76.03;96816.50;6397093;27;20565;-62
2021/12/06 06:02:06;;;;;;;;;;;;;;;-0.39;75.78;96816.53;6397093;27;20392;-62
2021/12/06 06:05:10;;;;;;;;;;;;;;;-0.10;75.49;96811.53;6396738;27;20392;-62
2021/12/06 06:08:11;;;;;;;;;;;;;;;0.03;73.91;96819.00;6395488;27;19934;-62
2021/12/06 06:11:14;;;;;;;;;;;;;;;0.16;73.85;96825.56;6396477;27;19926;-62
2021/12/06 06:14:17;;;;;;;;;;;;;;;0.43;73.44;96824.06;6395622;27;19930;-61
2021/12/06 06:17:19;;;;;;;;;;;;;;;0.44;73.44;96831.75;6377889;27;20067;-62
2021/12/06 06:20:23;;;;;;;;;;;;;;;0.33;73.03;96833.78;6396520;27;19923;-62
2021/12/06 06:23:24;;;;;;;;;;;;;;;0.20;72.92;96837.56;6396312;27;20304;-61
2021/12/06 06:26:25;;;;;;;;;;;;;;;0.23;73.39;96842.66;6396675;27;19923;-62
2021/12/06 06:29:26;;;;;;;;;;;;;;;0.51;73.40;96848.00;6395907;27;19926;-62
2021/12/06 06:32:31;;;;;;;;;;;;;;;0.70;72.82;96845.78;6396618;27;20307;-62
2021/12/06 06:35:33;;;;;;;;;;;;;;;0.83;71.73;96849.75;6398797;27;20390;-62
2021/12/06 06:38:36;;;;;;;;;;;;;;;0.93;70.93;96852.94;6400540;27;19923;-62
2021/12/06 06:41:39;;;;;;;;;;;;;;;1.11;69.89;96855.03;6401001;27;19984;-62
2021/12/06 06:44:40;;;;;;;;;;;;;;;1.25;67.69;96846.88;6400885;27;19927;-63
2021/12/06 06:47:44;;;;;;;;;;;;;;;1.09;66.64;96855.97;6400808;27;19923;-63
2021/12/06 06:50:45;;;;;;;;;;;;;;;0.89;67.14;96854.75;6399972;27;19923;-62
2021/12/06 06:53:48;;;;;;;;;;;;;;;0.83;66.90;96848.91;6400940;27;20017;-62
2021/12/06 06:56:49;;;;;;;;;;;;;;;0.83;67.05;96848.91;6400733;27;20388;-63
2021/12/06 06:59:53;;;;;;;;;;;;;;;0.66;66.06;96852.78;6382181;27;19923;-62
2021/12/06 07:02:57;;;;;;;;;;;;;;;0.33;65.56;96849.28;6400179;27;19923;-62
2021/12/06 07:05:59;;;;;;;;;;;;;;;0.10;62.98;96846.44;6399659;27;19923;-62
2021/12/06 07:09:00;;;;;;;;;;;;;;;-0.16;61.97;96839.28;6400385;27;20012;-62
2021/12/06 07:12:01;;;;;;;;;;;;;;;0.83;61.98;96849.75;6400397;27;19933;-62
2021/12/06 07:15:04;;;;;;;;;;;;;;;4.52;55.03;96852.88;6399880;27;20332;-62
2021/12/06 07:18:06;;;;;;;;;;;;;;;7.76;47.42;96856.72;6399148;27;19923;-62
2021/12/06 07:21:08;;;;;;;;;;;;;;;9.42;41.32;96861.25;6399879;27;20413;-63
2021/12/06 07:24:12;;;;;;;;;;;;;;;10.88;40.13;96860.78;6399956;27;19958;-62
2021/12/06 07:27:15;;;;;;;;;;;;;;;11.97;38.87;96869.19;6399894;27;19923;-65
2021/12/06 07:30:17;;;;;;;;;;;;;;;12.66;39.22;96872.16;6399180;27;19971;-64
2021/12/06 07:33:21;;;;;;;;;;;;;;;13.10;38.05;96872.44;6399991;27;19928;-64
2021/12/06 07:36:23;;;;;;;;;;;;;;;13.35;38.35;96871.47;6399617;27;19919;-65
2021/12/06 07:39:24;;;;;;;;;;;;;;;13.21;33.56;96885.69;6399641;27;19923;-62
2021/12/06 07:42:28;;;;;;;;;;;;;;;12.17;30.80;96875.69;6399620;27;19923;-62
2021/12/06 07:45:31;;;;;;;;;;;;;;;11.77;30.87;96882.88;6398337;27;19923;-62
2021/12/06 07:48:36;;;;;;;;;;;;;;;11.92;29.44;96887.13;6398301;27;20003;-63
2021/12/06 07:51:37;;;;;;;;;;;;;;;12.03;27.75;96881.97;6398341;27;20394;-63
2021/12/06 07:54:39;;;;;;;;;;;;;;;12.42;28.77;96890.59;6399406;27;19919;-63
2021/12/06 07:57:42;;;;;;;;;;;;;;;12.76;27.18;96896.06;6399186;27;19923;-63
2021/12/06 08:00:45;;;;;;;;;;;;;;;11.11;30.42;96887.38;6398588;27;19923;-64
2021/12/06 08:03:49;;;;;;;;;;;;;;;10.09;29.77;96895.69;6399058;27;19923;-63
2021/12/06 08:06:50;;;;;;;;;;;;;;;7.55;32.96;96896.19;6398129;27;20332;-63
2021/12/06 08:09:53;;;;;;;;;;;;;;;5.29;36.75;96895.66;6397954;27;19927;-63
2021/12/06 08:12:55;;;;;;;;;;;;;;;4.07;38.91;96893.72;6398801;27;19923;-63
2021/12/06 08:15:57;;;;;;;;;;;;;;;3.35;40.75;96899.00;6397522;27;19934;-63
2021/12/06 08:19:02;;;;;;;;;;;;;;;3.27;40.57;96908.84;6398180;27;20014;-63
2021/12/06 08:22:03;;;;;;;;;;;;;;;2.67;41.46;96903.91;6397264;27;19923;-63
2021/12/06 08:25:07;;;;;;;;;;;;;;;2.20;42.09;96914.06;6398558;27;19930;-64
2021/12/06 08:28:08;;;;;;;;;;;;;;;2.70;40.88;96911.63;6397572;27;19930;-62
2021/12/06 08:31:10;;;;;;;;;;;;;;;6.18;36.07;96914.34;6397338;27;19930;-64
2021/12/06 08:34:13;;;;;;;;;;;;;;;9.91;30.77;96918.69;6396968;27;20291;-64
2021/12/06 08:37:15;;;;;;;;;;;;;;;12.52;27.66;96922.47;6397276;27;19954;-63
2021/12/06 08:40:16;;;;;;;;;;;;;;;14.05;26.19;96931.31;6397818;27;19923;-63
2021/12/06 08:43:19;;;;;;;;;;;;;;;15.07;25.77;96930.22;6397143;27;19923;-64
2021/12/06 08:46:22;;;;;;;;;;;;;;;16.26;25.61;96932.56;6397543;27;19923;-64
2021/12/06 08:49:24;;;;;;;;;;;;;;;16.73;24.87;96937.31;6397600;27;19929;-62
2021/12/06 08:52:25;;;;;;;;;;;;;;;16.83;24.80;96943.56;6396072;27;19927;-63
2021/12/06 08:55:29;;;;;;;;;;;;;;;17.25;24.06;96943.34;6397754;27;19923;-64
2021/12/06 08:58:31;;;;;;;;;;;;;;;16.84;23.03;96939.91;6395747;27;19923;-64
2021/12/06 09:01:35;;;;;;;;;;;;;;;16.42;23.62;96934.75;6396792;27;19999;-63
2021/12/06 09:04:40;;;;;;;;;;;;;;;16.78;24.34;96940.44;6397506;27;19923;-63
2021/12/06 09:07:41;;;;;;;;;;;;;;;17.49;23.86;96950.88;6397395;27;19934;-63
2021/12/06 09:10:43;;;;;;;;;;;;;;;18.13;24.18;96950.25;6396841;27;19923;-63
2021/12/06 09:13:44;;;;;;;;;;;;;;;18.88;23.41;96949.41;6396310;27;20273;-63
2021/12/06 09:16:46;;;;;;;;;;;;;;;18.55;22.86;96949.00;6396842;27;20315;-63
2021/12/06 09:19:47;;;;;;;;;;;;;;;18.20;23.13;96945.19;6378457;27;19930;-63
2021/12/06 09:22:49;;;;;;;;;;;;;;;18.22;23.49;96961.84;6396300;27;20303;-63
2021/12/06 09:25:50;;;;;;;;;;;;;;;17.77;22.19;96959.00;6396316;27;19930;-63
2021/12/06 09:28:51;;;;;;;;;;;;;;;17.08;22.71;96962.63;6397196;27;19927;-66
2021/12/06 09:31:53;;;;;;;;;;;;;;;16.82;23.46;96968.47;6397307;27;19923;-66
2021/12/06 09:34:58;;;;;;;;;;;;;;;16.32;23.52;96968.38;6396511;27;19923;-68
2021/12/06 09:38:02;;;;;;;;;;;;;;;15.89;23.31;96969.41;6397412;27;20021;-69
2021/12/06 09:41:11;;;;;;;;;;;;;;;15.30;21.99;96975.22;6397533;27;19922;-66
2021/12/06 09:44:14;;;;;;;;;;;;;;;14.34;23.38;96974.00;6397443;27;19923;-68
2021/12/06 09:47:16;;;;;;;;;;;;;;;13.63;24.26;96970.66;6396491;27;19923;-68
2021/12/06 09:50:21;;;;;;;;;;;;;;;12.26;25.54;96982.38;6397247;27;19923;-68
2021/12/06 09:53:24;;;;;;;;;;;;;;;10.85;27.44;96987.34;6396624;27;20357;-71
2021/12/06 09:56:35;;;;;;;;;;;;;;;9.98;27.65;96982.25;6397323;27;19923;-68
2021/12/06 09:59:37;;;;;;;;;;;;;;;9.62;27.98;96987.00;6396209;27;20368;-62
2021/12/06 10:02:40;;;;;;;;;;;;;;;8.19;30.07;96990.66;6396175;27;19922;-62
2021/12/06 10:05:46;;;;;;;;;;;;;;;5.88;32.89;96987.06;6395810;27;20307;-63
2021/12/06 10:08:49;;;;;;;;;;;;;;;3.72;36.01;96993.97;6396902;27;19922;-63
2021/12/06 10:11:54;;;;;;;;;;;;;;;2.20;38.10;96994.56;6401616;27;19931;-63
2021/12/06 10:14:56;;;;;;;;;;;;;;;1.25;40.08;97002.41;6401581;27;19922;-63
2021/12/06 10:18:01;;;;;;;;;;;;;;;0.54;40.93;96997.22;6400644;27;19919;-64
2021/12/06 10:21:03;;;;;;;;;;;;;;;-0.11;41.95;96990.91;6400314;27;19987;-63
2021/12/06 10:24:10;;;;;;;;;;;;;;;-0.49;42.71;97000.25;6401414;27;19923;-64
2021/12/06 10:27:14;;;;;;;;;;;;;;;-0.92;43.31;96997.59;6401649;27;19954;-63
2021/12/06 10:30:17;;;;;;;;;;;;;;;-1.36;45.01;97002.63;6400644;27;19963;-63
2021/12/06 10:33:23;;;;;;;;;;;;;;;-1.64;45.95;97006.53;6400359;27;19923;-64
2021/12/06 10:36:27;;;;;;;;;;;;;;;-1.90;46.61;97009.44;6400663;27;19930;-64
2021/12/06 10:39:35;;;;;;;;;;;;;;;-2.32;47.66;97011.69;6400963;27;20021;-62
2021/12/06 10:42:39;;;;;;;;;;;;;;;-2.63;48.28;97021.47;6399846;27;20303;-63
2021/12/06 10:45:47;;;;;;;;;;;;;;;-2.80;48.75;97024.22;6401213;27;19922;-64
2021/12/06 10:48:50;;;;;;;;;;;;;;;-2.93;49.21;97033.81;6401222;27;19966;-63
2021/12/06 10:51:54;;;;;;;;;;;;;;;-2.94;49.62;97032.94;6400919;27;19923;-63
2021/12/06 10:54:57;;;;;;;;;;;;;;;-3.29;49.98;97040.94;6400838;27;19923;-62
2021/12/06 10:58:00;;;;;;;;;;;;;;;-3.44;50.14;97034.22;6381386;27;19934;-65
2021/12/06 11:01:01;;;;;;;;;;;;;;;-3.65;50.41;97027.50;6400576;27;20288;-64
2021/12/06 11:04:09;;;;;;;;;;;;;;;-3.68;50.84;97031.78;6400267;27;19923;-64
2021/12/06 11:07:11;;;;;;;;;;;;;;;-3.79;50.99;97049.88;6399408;27;20284;-63
2021/12/06 11:10:22;;;;;;;;;;;;;;;-3.86;51.55;97053.34;6400164;27;19923;-66
2021/12/06 11:13:31;;;;;;;;;;;;;;;-4.02;51.58;97062.81;6400488;27;19930;-63
2021/12/06 11:16:34;;;;;;;;;;;;;;;-4.18;51.80;97081.75;6400261;27;19923;-63
2021/12/06 11:19:37;;;;;;;;;;;;;;;-4.13;52.31;97080.03;6399693;27;20009;-64
2021/12/06 11:22:40;;;;;;;;;;;;;;;-4.16;52.16;97080.91;6399137;27;19973;-64
2021/12/06 11:25:52;;;;;;;;;;;;;;;-4.27;52.43;97080.06;6399476;27;20396;-64
2021/12/06 11:28:54;;;;;;;;;;;;;;;-4.08;52.78;97091.13;6399063;27;20314;-63
2021/12/06 11:31:59;;;;;;;;;;;;;;;-4.31;52.65;97086.06;6399840;27;20029;-64
2021/12/06 11:35:08;;;;;;;;;;;;;;;-4.55;53.42;97090.41;6398610;27;20307;-63
2021/12/06 11:38:17;;;;;;;;;;;;;;;-4.61;53.42;97087.88;6398525;27;19946;-63
2021/12/06 11:41:21;;;;;;;;;;;;;;;-4.79;53.78;97099.00;6399335;27;19923;-64
2021/12/06 11:44:34;;;;;;;;;;;;;;;-4.96;54.25;97110.97;6399444;27;19923;-64
2021/12/06 11:47:35;;;;;;;;;;;;;;;-5.09;54.56;97112.72;6399160;27;19923;-63
2021/12/06 11:50:42;;;;;;;;;;;;;;;-5.25;54.35;97118.69;6399331;27;19919;-64
2021/12/06 11:53:44;;;;;;;;;;;;;;;-5.35;54.73;97122.06;6399351;27;20319;-63
2021/12/06 11:56:48;;;;;;;;;;;;;;;-5.37;54.92;97124.66;6399308;27;19938;-64
2021/12/06 11:59:51;;;;;;;;;;;;;;;-5.35;55.44;97127.19;6397743;27;19919;-64
2021/12/06 12:02:54;;;;;;;;;;;;;;;-5.35;55.31;97122.06;6398926;27;19923;-63
2021/12/06 12:06:00;;;;;;;;;;;;;;;-5.37;55.81;97132.34;6398954;27;20294;-64
2021/12/06 12:09:04;;;;;;;;;;;;;;;-5.42;55.83;97127.19;6397984;27;19930;-64
2021/12/06 12:12:13;;;;;;;;;;;;;;;-5.46;55.93;97133.19;6398671;27;19970;-63
2021/12/06 12:15:17;;;;;;;;;;;;;;;-5.56;55.80;97131.44;6398367;27;19923;-64
2021/12/06 12:18:21;;;;;;;;;;;;;;;-5.67;56.13;97131.41;6398305;27;19922;-63
2021/12/06 12:21:24;;;;;;;;;;;;;;;-5.65;56.25;97139.09;6397946;27;19976;-63
2021/12/06 12:24:25;;;;;;;;;;;;;;;-5.67;55.98;97135.69;6397996;27;20037;-64
2021/12/06 12:27:41;;;;;;;;;;;;;;;-5.75;56.17;97132.22;6398253;27;19923;-64
2021/12/06 12:30:46;;;;;;;;;;;;;;;-5.84;56.10;97142.44;6397807;27;20369;-64
2021/12/06 12:33:48;;;;;;;;;;;;;;;-5.94;56.70;97142.47;6377918;27;20288;-64
2021/12/06 12:36:52;;;;;;;;;;;;;;;-6.02;56.60;97146.69;6396849;27;20474;-64
2021/12/06 12:40:02;;;;;;;;;;;;;;;-6.01;56.67;97158.63;6397144;27;20407;-63
2021/12/06 12:43:05;;;;;;;;;;;;;;;-5.88;56.50;97152.69;6397188;27;19919;-63
2021/12/06 12:46:20;;;;;;;;;;;;;;;-5.77;56.68;97154.47;6397650;27;19923;-64
2021/12/06 12:49:24;;;;;;;;;;;;;;;-5.66;56.69;97168.16;6397843;27;20415;-63
2021/12/06 12:52:34;;;;;;;;;;;;;;;-5.65;56.46;97163.03;6397992;27;19923;-64
2021/12/06 12:55:48;;;;;;;;;;;;;;;-5.67;55.95;97169.00;6397511;27;20402;-64
2021/12/06 12:58:52;;;;;;;;;;;;;;;-5.88;56.38;97178.31;6397732;27;19923;-64
2021/12/06 13:02:25;;;;;;;;;;;;;;;-6.03;56.93;97160.31;6378879;27;19937;-64
2021/12/06 13:05:29;;;;;;;;;;;;;;;-6.22;56.96;97166.22;6377388;27;20386;-64
2021/12/06 13:08:36;;;;;;;;;;;;;;;-6.30;57.53;97178.13;6397192;27;19922;-63
2021/12/06 13:11:57;;;;;;;;;;;;;;;-6.15;57.17;97185.88;6397488;27;19923;-64
2021/12/06 13:15:12;;;;;;;;;;;;;;;-6.13;57.47;97191.88;6397167;27;19930;-63
2021/12/06 13:18:35;;;;;;;;;;;;;;;-5.97;57.98;97197.94;6397276;27;19923;-64
2021/12/06 13:21:44;;;;;;;;;;;;;;;-6.05;57.72;97202.19;6397279;27;20316;-65
2021/12/06 13:24:48;;;;;;;;;;;;;;;-6.06;57.68;97209.00;6396568;27;19958;-64
2021/12/06 13:28:10;;;;;;;;;;;;;;;-6.11;57.94;97203.84;6396334;27;20391;-63
2021/12/06 13:31:22;;;;;;;;;;;;;;;-6.15;58.00;97203.81;6396968;27;19923;-64
2021/12/06 13:34:29;;;;;;;;;;;;;;;-6.26;57.77;97215.69;6378566;27;19927;-63
2021/12/06 13:37:33;;;;;;;;;;;;;;;-6.46;58.04;97213.84;6396749;27;19930;-63
2021/12/06 13:40:36;;;;;;;;;;;;;;;-6.61;58.62;97208.63;6395912;27;20303;-64
2021/12/06 13:43:43;;;;;;;;;;;;;;;-6.69;58.38;97217.94;6397054;27;19930;-65
2021/12/06 13:46:50;;;;;;;;;;;;;;;-6.78;59.05;97217.03;6402337;27;20308;-64
2021/12/06 13:49:56;;;;;;;;;;;;;;;-6.93;58.77;97216.91;6402074;27;19923;-64
2021/12/06 13:52:59;;;;;;;;;;;;;;;-7.12;58.91;97225.25;6400900;27;19930;-64
2021/12/06 13:56:07;;;;;;;;;;;;;;;-7.32;59.01;97223.31;6401903;27;19926;-63
2021/12/06 13:59:09;;;;;;;;;;;;;;;-7.44;59.46;97228.31;6401153;27;19930;-64
2021/12/06 14:02:12;;;;;;;;;;;;;;;-7.54;60.13;97236.69;6402014;27;19930;-64
2021/12/06 14:05:16;;;;;;;;;;;;;;;-7.62;59.60;97236.59;6401739;27;19933;-65
2021/12/06 14:08:18;;;;;;;;;;;;;;;-7.69;60.01;97253.56;6382320;27;19999;-64
2021/12/06 14:11:25;;;;;;;;;;;;;;;-7.74;59.83;97249.25;6400650;27;20277;-63
2021/12/06 14:14:27;;;;;;;;;;;;;;;-7.74;60.07;97255.19;6401548;27;19927;-64
2021/12/06 14:17:29;;;;;;;;;;;;;;;-7.71;59.92;97251.81;6401446;27;19923;-64
2021/12/06 14:20:44;;;;;;;;;;;;;;;-7.71;60.16;97257.78;6401203;27;19923;-63
2021/12/06 14:23:46;;;;;;;;;;;;;;;-7.63;60.41;97257.03;6400418;27;19945;-64
2021/12/06 14:26:48;;;;;;;;;;;;;;;-7.59;59.79;97262.19;6401354;27;20409;-64
2021/12/06 14:29:50;;;;;;;;;;;;;;;-7.51;59.85;97267.41;6401220;27;19930;-64
2021/12/06 14:32:54;;;;;;;;;;;;;;;-7.39;59.66;97269.25;6400243;27;19983;-64
2021/12/06 14:35:55;;;;;;;;;;;;;;;-7.43;59.78;97270.91;6400015;27;19923;-64
2021/12/06 14:39:05;;;;;;;;;;;;;;;-7.40;59.72;97270.94;6400875;27;20017;-64
2021/12/06 14:42:12;;;;;;;;;;;;;;;-7.41;59.66;97274.34;6401002;27;19927;-64
2021/12/06 14:45:15;;;;;;;;;;;;;;;-7.50;59.89;97277.66;6399864;27;20379;-64
2021/12/06 14:48:26;;;;;;;;;;;;;;;-7.61;59.86;97265.56;6400598;27;20399;-64
2021/12/06 14:51:32;;;;;;;;;;;;;;;-7.74;60.22;97278.19;6400817;27;19923;-64
2021/12/06 14:54:36;;;;;;;;;;;;;;;-7.83;60.71;97275.53;6399544;27;19922;-64
2021/12/06 14:57:37;;;;;;;;;;;;;;;-7.84;61.16;97283.16;6398458;27;20320;-64
2021/12/06 15:00:46;;;;;;;;;;;;;;;-7.81;60.58;97278.06;6400416;27;19930;-65
2021/12/06 15:03:54;;;;;;;;;;;;;;;-7.86;60.79;97283.16;6400389;27;20052;-63
2021/12/06 15:06:58;;;;;;;;;;;;;;;-7.93;60.48;97286.44;6398949;27;19923;-66
2021/12/06 15:10:03;;;;;;;;;;;;;;;-8.09;60.86;97293.03;6400481;27;19923;-64
2021/12/06 15:13:13;;;;;;;;;;;;;;;-8.16;61.25;97286.97;6400489;27;19923;-64
2021/12/06 15:16:19;;;;;;;;;;;;;;;-8.26;60.98;97290.22;6400045;27;19922;-63
2021/12/06 15:19:21;;;;;;;;;;;;;;;-8.33;61.43;97298.59;6398927;27;20606;-64
2021/12/06 15:22:28;;;;;;;;;;;;;;;-8.41;61.22;97295.09;6399518;27;19923;-64
2021/12/06 15:25:32;;;;;;;;;;;;;;;-8.47;61.43;97300.97;6399834;27;19927;-65
2021/12/06 15:28:39;;;;;;;;;;;;;;;-8.48;61.55;97304.38;6399435;27;19954;-64
2021/12/06 15:31:44;;;;;;;;;;;;;;;-8.52;61.17;97299.19;6400069;27;19923;-64
2021/12/06 15:34:52;;;;;;;;;;;;;;;-8.59;61.27;97301.63;6400186;27;20307;-65
2021/12/06 15:37:57;;;;;;;;;;;;;;;-8.69;61.52;97299.78;6400066;27;19923;-64
2021/12/06 15:41:01;;;;;;;;;;;;;;;-8.78;61.75;97302.16;6398594;27;19988;-63
2021/12/06 15:44:08;;;;;;;;;;;;;;;-8.90;61.65;97307.88;6399512;27;19926;-64
2021/12/06 15:47:17;;;;;;;;;;;;;;;-8.96;61.61;97314.56;6399453;27;19929;-64
2021/12/06 15:50:22;;;;;;;;;;;;;;;-8.98;61.91;97316.22;6399336;27;20364;-65
2021/12/06 15:53:25;;;;;;;;;;;;;;;-8.95;61.46;97316.28;6398552;27;19927;-64
2021/12/06 15:56:27;;;;;;;;;;;;;;;-9.01;61.98;97314.47;6398597;27;19927;-65
2021/12/06 15:59:31;;;;;;;;;;;;;;;-9.04;62.17;97317.84;6399322;27;19923;-65
2021/12/06 16:02:35;;;;;;;;;;;;;;;-8.97;61.65;97317.94;6398322;27;19972;-64
2021/12/06 16:05:38;;;;;;;;;;;;;;;-8.88;61.80;97323.22;6398303;27;20391;-65
2021/12/06 16:08:45;;;;;;;;;;;;;;;-8.85;61.06;97336.03;6398943;27;19923;-67
2021/12/06 16:11:58;;;;;;;;;;;;;;;-8.89;61.34;97336.78;6379319;27;19919;-67
2021/12/06 16:15:01;;;;;;;;;;;;;;;-8.93;61.48;97335.03;6398876;27;19923;-67
2021/12/06 16:18:08;;;;;;;;;;;;;;;-8.99;61.43;97322.16;6398474;27;20300;-67